createdAt,value
2023-11-05T00:01:30.852Z,7.35
2023-11-05T00:03:58.135Z,6.90
2023-11-05T00:06:25.021Z,7.22
2023-11-05T00:08:51.794Z,6.97
2023-11-05T00:11:18.524Z,7.68
2023-11-05T00:13:45.405Z,7.30
2023-11-05T00:16:12.274Z,8.70
2023-11-05T00:18:39.231Z,9.32
2023-11-05T00:21:07.224Z,8.68
2023-11-05T00:23:34.052Z,8.15
2023-11-05T00:26:00.961Z,7.82
2023-11-05T00:28:27.755Z,7.85
2023-11-05T00:30:54.624Z,8.48
2023-11-05T00:33:22.180Z,8.13
2023-11-05T00:35:49.557Z,7.05
2023-11-05T00:38:19.349Z,7.20
2023-11-05T00:40:46.229Z,7.15
2023-11-05T00:43:14.599Z,5.80
2023-11-05T00:45:41.442Z,7.57
2023-11-05T00:48:08.354Z,7.05
2023-11-05T00:50:35.282Z,6.20
2023-11-05T00:53:04.480Z,5.60
2023-11-05T00:55:37.446Z,6.57
2023-11-05T00:58:04.220Z,7.18
2023-11-05T01:00:31.036Z,5.90
2023-11-05T01:02:57.882Z,6.38
2023-11-05T01:05:24.736Z,6.38
2023-11-05T01:07:51.549Z,6.38
2023-11-05T01:10:18.382Z,5.20
2023-11-05T01:12:45.157Z,5.00
2023-11-05T01:15:12.025Z,4.70
2023-11-05T01:17:38.819Z,5.22
2023-11-05T01:20:08.402Z,5.28
2023-11-05T01:22:35.304Z,5.45
2023-11-05T01:25:02.159Z,5.20
2023-11-05T01:27:29.047Z,5.38
2023-11-05T01:29:55.852Z,4.70
2023-11-05T01:32:22.649Z,4.57
2023-11-05T01:34:49.441Z,4.03
2023-11-05T01:37:16.276Z,5.40
2023-11-05T01:39:43.091Z,4.68
2023-11-05T01:42:09.872Z,6.47
2023-11-05T01:44:36.694Z,5.38
2023-11-05T01:47:03.688Z,5.68
2023-11-05T01:49:31.394Z,5.78
2023-11-05T01:51:58.605Z,5.80
2023-11-05T01:54:26.539Z,5.95
2023-11-05T01:56:53.465Z,6.03
2023-11-05T01:59:21.023Z,6.03
2023-11-05T02:01:51.643Z,5.75
2023-11-05T02:04:18.781Z,6.20
2023-11-05T02:06:47.385Z,6.57
2023-11-05T02:09:14.380Z,5.68
2023-11-05T02:11:41.106Z,5.80
2023-11-05T02:14:16.098Z,6.70
2023-11-05T02:16:42.978Z,6.10
2023-11-05T02:19:10.281Z,6.18
2023-11-05T02:21:47.702Z,5.93
2023-11-05T02:24:14.758Z,5.82
2023-11-05T02:26:49.318Z,5.38
2023-11-05T02:29:16.213Z,6.50
2023-11-05T02:31:46.137Z,5.30
2023-11-05T02:36:39.617Z,6.80
2023-11-05T02:39:06.361Z,5.88
2023-11-05T02:41:33.102Z,6.72
2023-11-05T02:44:00.504Z,6.15
2023-11-05T02:46:27.325Z,5.90
2023-11-05T02:48:55.110Z,6.20
2023-11-05T02:51:21.880Z,5.15
2023-11-05T02:53:48.721Z,5.63
2023-11-05T02:56:15.488Z,4.95
2023-11-05T02:58:43.370Z,6.65
2023-11-05T03:01:11.233Z,5.97
2023-11-05T03:03:38.121Z,6.55
2023-11-05T03:06:05.417Z,6.45
2023-11-05T03:08:32.135Z,5.50
2023-11-05T03:10:58.973Z,6.15
2023-11-05T03:13:25.735Z,6.30
2023-11-05T03:15:52.509Z,4.75
2023-11-05T03:18:19.401Z,4.28
2023-11-05T03:20:47.293Z,4.55
2023-11-05T03:23:14.050Z,6.03
2023-11-05T03:25:42.673Z,5.22
2023-11-05T03:28:09.564Z,5.40
2023-11-05T03:30:36.303Z,5.75
2023-11-05T03:33:05.877Z,4.82
2023-11-05T03:35:35.112Z,4.97
2023-11-05T03:38:01.917Z,5.40
2023-11-05T03:40:28.745Z,6.15
2023-11-05T03:42:55.524Z,6.15
2023-11-05T03:45:22.298Z,5.32
2023-11-05T03:47:51.765Z,6.35
2023-11-05T03:50:20.649Z,5.43
2023-11-05T03:52:47.419Z,5.97
2023-11-05T03:55:14.338Z,5.57
2023-11-05T03:57:41.450Z,5.63
2023-11-05T04:00:09.285Z,5.78
2023-11-05T04:02:37.240Z,7.13
2023-11-05T04:05:06.229Z,6.43
2023-11-05T04:07:33.094Z,6.82
2023-11-05T04:10:00.445Z,5.22
2023-11-05T04:12:28.412Z,5.80
2023-11-05T04:14:55.241Z,6.53
2023-11-05T04:17:24.795Z,6.30
2023-11-05T04:19:54.190Z,5.65
2023-11-05T04:22:21.033Z,4.85
2023-11-05T04:24:47.820Z,5.10
2023-11-05T04:27:14.585Z,5.25
2023-11-05T04:29:41.308Z,4.18
2023-11-05T04:32:09.028Z,3.63
2023-11-05T04:34:35.806Z,4.10
2023-11-05T04:37:03.107Z,3.95
2023-11-05T04:39:30.209Z,3.75
2023-11-05T04:41:57.102Z,3.25
2023-11-05T04:44:24.013Z,3.40
2023-11-05T04:46:52.118Z,3.08
2023-11-05T04:49:18.990Z,2.80
2023-11-05T04:51:45.757Z,3.15
2023-11-05T04:54:12.516Z,2.83
2023-11-05T04:56:39.383Z,2.70
2023-11-05T04:59:07.147Z,2.60
2023-11-05T05:01:34.267Z,2.50
2023-11-05T05:04:01.705Z,2.70
2023-11-05T05:06:28.493Z,3.22
2023-11-05T05:08:55.305Z,3.28
2023-11-05T05:11:22.475Z,3.15
2023-11-05T05:13:49.228Z,3.20
2023-11-05T05:16:19.698Z,2.92
2023-11-05T05:18:47.226Z,2.90
2023-11-05T05:21:14.556Z,3.08
2023-11-05T05:23:41.274Z,2.83
2023-11-05T05:26:08.144Z,2.60
2023-11-05T05:28:35.658Z,2.72
2023-11-05T05:31:04.293Z,3.00
2023-11-05T05:33:31.181Z,3.25
2023-11-05T05:35:57.963Z,2.53
2023-11-05T05:38:25.122Z,2.58
2023-11-05T05:40:51.935Z,2.13
2023-11-05T05:43:18.767Z,3.67
2023-11-05T05:45:46.183Z,2.58
2023-11-05T05:48:13.460Z,2.53
2023-11-05T05:50:40.313Z,3.13
2023-11-05T05:53:07.030Z,2.38
2023-11-05T05:55:34.241Z,3.08
2023-11-05T05:58:01.593Z,2.85
2023-11-05T06:00:29.337Z,2.50
2023-11-05T06:02:56.312Z,3.25
2023-11-05T06:05:23.482Z,3.58
2023-11-05T06:07:50.305Z,3.28
2023-11-05T06:10:17.493Z,3.38
2023-11-05T06:12:44.264Z,3.35
2023-11-05T06:15:14.037Z,3.50
2023-11-05T06:17:42.317Z,3.13
2023-11-05T06:20:11.977Z,3.28
2023-11-05T06:22:39.703Z,3.80
2023-11-05T06:25:09.938Z,4.10
2023-11-05T06:27:39.017Z,3.95
2023-11-05T06:30:10.333Z,4.15
2023-11-05T06:32:37.185Z,4.20
2023-11-05T06:35:04.277Z,3.78
2023-11-05T06:37:41.451Z,4.03
2023-11-05T06:40:15.145Z,4.60
2023-11-05T06:42:42.025Z,4.40
2023-11-05T06:45:10.202Z,4.70
2023-11-05T06:47:37.051Z,4.55
2023-11-05T06:50:03.943Z,5.80
2023-11-05T06:52:30.644Z,9.05
2023-11-05T06:54:57.927Z,6.85
2023-11-05T06:57:25.213Z,5.50
2023-11-05T06:59:52.354Z,5.05
2023-11-05T07:02:19.143Z,5.13
2023-11-05T07:04:45.916Z,4.65
2023-11-05T07:07:12.798Z,3.83
2023-11-05T07:09:42.260Z,3.08
2023-11-05T07:12:09.658Z,2.97
2023-11-05T07:14:36.763Z,3.05
2023-11-05T07:17:05.811Z,2.80
2023-11-05T07:19:32.859Z,3.27
2023-11-05T07:21:59.688Z,3.28
2023-11-05T07:24:26.420Z,3.05
2023-11-05T07:26:53.240Z,3.55
2023-11-05T07:29:20.317Z,2.90
2023-11-05T07:31:47.442Z,3.20
2023-11-05T07:34:15.937Z,3.33
2023-11-05T07:36:42.781Z,3.13
2023-11-05T07:39:13.072Z,3.22
2023-11-05T07:41:39.874Z,3.63
2023-11-05T07:44:07.196Z,3.95
2023-11-05T07:46:36.746Z,3.80
2023-11-05T07:49:05.627Z,3.35
2023-11-05T07:51:35.142Z,3.85
2023-11-05T07:54:03.766Z,4.20
2023-11-05T07:56:30.693Z,3.53
2023-11-05T07:58:57.467Z,4.40
2023-11-05T08:01:26.467Z,3.35
2023-11-05T08:03:53.214Z,2.83
2023-11-05T08:06:20.984Z,3.40
2023-11-05T08:08:55.123Z,3.30
2023-11-05T08:11:22.122Z,3.58
2023-11-05T08:13:48.975Z,3.50
2023-11-05T08:16:15.852Z,3.67
2023-11-05T08:18:42.862Z,3.75
2023-11-05T08:21:10.149Z,4.75
2023-11-05T08:23:38.249Z,4.35
2023-11-05T08:26:06.272Z,8.63
2023-11-05T08:28:33.578Z,8.32
2023-11-05T08:31:00.388Z,6.68
2023-11-05T08:33:27.233Z,5.55
2023-11-05T08:35:55.512Z,6.28
2023-11-05T08:38:23.879Z,5.82
2023-11-05T08:40:51.248Z,6.07
2023-11-05T08:43:19.176Z,5.25
2023-11-05T08:45:50.621Z,5.80
2023-11-05T08:48:21.487Z,5.18
2023-11-05T08:50:48.371Z,6.40
2023-11-05T08:53:16.601Z,5.35
2023-11-05T08:55:46.321Z,6.22
2023-11-05T08:58:16.239Z,6.03
2023-11-05T09:00:43.301Z,4.55
2023-11-05T09:03:10.994Z,4.38
2023-11-05T09:05:39.842Z,3.38
2023-11-05T09:08:10.196Z,2.85
2023-11-05T09:10:37.319Z,3.13
2023-11-05T09:13:06.113Z,2.80
2023-11-05T09:15:34.527Z,2.67
2023-11-05T09:18:01.389Z,3.13
2023-11-05T09:20:33.063Z,2.63
2023-11-05T09:23:00.670Z,2.20
2023-11-05T09:25:29.090Z,2.10
2023-11-05T09:27:57.474Z,2.03
2023-11-05T09:30:24.261Z,2.20
2023-11-05T09:32:51.197Z,2.35
2023-11-05T09:35:18.933Z,2.30
2023-11-05T09:37:47.022Z,2.28
2023-11-05T09:40:20.515Z,2.00
2023-11-05T09:43:06.715Z,1.75
2023-11-05T09:45:36.588Z,2.35
2023-11-05T09:48:07.156Z,1.95
2023-11-05T09:50:34.783Z,2.42
2023-11-05T09:53:09.589Z,2.65
2023-11-05T09:55:37.114Z,3.30
2023-11-05T09:58:04.099Z,3.15
2023-11-05T10:00:34.275Z,2.55
2023-11-05T10:03:20.587Z,3.00
2023-11-05T10:05:49.040Z,3.95
2023-11-05T10:08:16.268Z,2.53
2023-11-05T10:10:46.102Z,2.50
2023-11-05T10:13:14.713Z,3.08
2023-11-05T10:15:43.281Z,3.40
2023-11-05T10:18:15.405Z,3.05
2023-11-05T10:20:56.227Z,3.70
2023-11-05T10:23:26.976Z,3.25
2023-11-05T10:25:54.960Z,2.75
2023-11-05T10:28:24.492Z,3.33
2023-11-05T10:30:56.351Z,3.97
2023-11-05T10:33:25.442Z,4.75
2023-11-05T10:35:52.663Z,3.65
2023-11-05T10:38:20.410Z,4.13
2023-11-05T10:40:53.339Z,4.18
2023-11-05T10:43:23.751Z,5.18
2023-11-05T10:45:54.345Z,5.45
2023-11-05T10:48:21.209Z,5.70
2023-11-05T10:50:49.688Z,5.68
2023-11-05T10:53:17.210Z,5.45
2023-11-05T10:55:45.384Z,5.25
2023-11-05T11:00:46.375Z,5.40
2023-11-05T11:03:15.374Z,5.55
2023-11-05T11:05:42.188Z,5.50
2023-11-05T11:08:13.296Z,4.82
2023-11-05T11:10:46.813Z,5.30
2023-11-05T11:13:16.263Z,5.03
2023-11-05T11:15:46.464Z,4.85
2023-11-05T11:18:22.104Z,4.43
2023-11-05T11:20:50.137Z,4.75
2023-11-05T11:23:18.328Z,5.70
2023-11-05T11:26:01.155Z,5.43
2023-11-05T11:28:29.517Z,4.88
2023-11-05T11:30:57.707Z,5.38
2023-11-05T11:33:25.829Z,5.10
2023-11-05T11:35:52.985Z,4.88
2023-11-05T11:38:19.836Z,6.25
2023-11-05T11:40:59.470Z,5.20
2023-11-05T11:43:30.125Z,6.10
2023-11-05T11:45:57.726Z,5.88
2023-11-05T11:48:27.800Z,4.68
2023-11-05T11:51:11.709Z,4.97
2023-11-05T11:53:41.535Z,4.18
2023-11-05T11:58:41.301Z,4.18
2023-11-05T12:01:17.907Z,3.85
2023-11-05T12:03:52.250Z,3.60
2023-11-05T12:06:19.791Z,3.70
2023-11-05T12:08:47.247Z,3.10
2023-11-05T12:11:18.355Z,2.90
2023-11-05T12:13:48.697Z,3.38
2023-11-05T12:16:18.242Z,2.78
2023-11-05T12:18:46.177Z,3.60
2023-11-05T12:21:15.947Z,3.35
2023-11-05T12:26:14.355Z,3.88
2023-11-05T12:28:41.463Z,3.40
2023-11-05T12:31:09.184Z,3.88
2023-11-05T12:33:40.997Z,4.00
2023-11-05T12:36:09.161Z,4.43
2023-11-05T12:38:36.505Z,4.68
2023-11-05T12:41:05.057Z,4.40
2023-11-05T12:43:31.962Z,4.28
2023-11-05T12:46:06.259Z,4.07
2023-11-05T12:48:34.077Z,4.45
2023-11-05T12:51:03.165Z,4.68
2023-11-05T12:53:31.877Z,4.45
2023-11-05T12:56:06.526Z,5.25
2023-11-05T12:58:35.249Z,4.80
2023-11-05T13:01:03.806Z,6.45
2023-11-05T13:03:35.127Z,5.03
2023-11-05T13:06:04.399Z,6.25
2023-11-05T13:08:35.589Z,5.07
2023-11-05T13:11:06.785Z,6.22
2023-11-05T13:13:35.960Z,5.03
2023-11-05T13:16:03.890Z,4.97
2023-11-05T13:18:31.253Z,5.20
2023-11-05T13:20:58.639Z,5.10
2023-11-05T13:23:27.732Z,5.53
2023-11-05T13:25:55.132Z,4.25
2023-11-05T13:28:22.561Z,5.85
2023-11-05T13:30:49.508Z,5.47
2023-11-05T13:33:17.616Z,4.90
2023-11-05T13:35:46.558Z,5.30
2023-11-05T13:38:13.657Z,5.18
2023-11-05T13:40:40.503Z,5.70
2023-11-05T13:43:07.667Z,6.30
2023-11-05T13:45:35.018Z,5.18
2023-11-05T13:48:01.907Z,5.22
2023-11-05T13:50:31.183Z,5.20
2023-11-05T13:52:58.890Z,5.00
2023-11-05T13:55:25.760Z,5.22
2023-11-05T13:57:53.854Z,5.30
2023-11-05T14:00:21.717Z,5.35
2023-11-05T14:02:48.806Z,5.00
2023-11-05T14:05:16.898Z,5.47
2023-11-05T14:07:43.898Z,5.72
2023-11-05T14:10:13.206Z,5.82
2023-11-05T14:12:40.291Z,6.40
2023-11-05T14:15:09.044Z,7.03
2023-11-05T14:17:36.734Z,8.18
2023-11-05T14:20:10.060Z,6.80
2023-11-05T14:22:37.018Z,8.95
2023-11-05T14:25:03.970Z,8.65
2023-11-05T14:27:30.853Z,9.95
2023-11-05T14:29:57.883Z,8.95
2023-11-05T14:32:24.931Z,9.68
2023-11-05T14:34:52.637Z,10.73
2023-11-05T14:37:20.067Z,11.85
2023-11-05T14:39:46.920Z,11.57
2023-11-05T14:42:13.851Z,11.82
2023-11-05T14:44:41.782Z,11.27
2023-11-05T14:47:10.719Z,12.95
2023-11-05T14:49:37.645Z,13.27
2023-11-05T14:52:07.723Z,13.68
2023-11-05T14:54:37.182Z,16.23
2023-11-05T14:57:05.104Z,14.82
2023-11-05T14:59:32.183Z,11.77
2023-11-05T15:01:59.269Z,10.93
2023-11-05T15:04:26.682Z,12.45
2023-11-05T15:06:55.324Z,9.70
2023-11-05T15:09:22.112Z,9.15
2023-11-05T15:11:50.488Z,9.70
2023-11-05T15:14:17.429Z,11.57
2023-11-05T15:16:44.677Z,11.30
2023-11-05T15:19:11.498Z,11.43
2023-11-05T15:21:46.345Z,10.50
2023-11-05T15:24:14.976Z,11.60
2023-11-05T15:26:41.946Z,13.90
2023-11-05T15:29:09.711Z,16.25
2023-11-05T15:31:37.698Z,16.25
2023-11-05T15:34:05.099Z,17.02
2023-11-05T15:36:32.963Z,14.43
2023-11-05T15:39:00.106Z,16.35
2023-11-05T15:41:28.017Z,15.18
2023-11-05T15:43:55.703Z,17.67
2023-11-05T15:46:26.111Z,13.82
2023-11-05T15:48:53.296Z,14.73
2023-11-05T15:51:24.003Z,12.32
2023-11-05T15:53:51.278Z,12.07
2023-11-05T15:56:21.044Z,12.30
2023-11-05T15:58:49.099Z,9.77
2023-11-05T16:01:15.960Z,9.88
2023-11-05T16:03:43.025Z,8.88
2023-11-05T16:06:10.218Z,8.43
2023-11-05T16:08:37.742Z,7.13
2023-11-05T16:11:05.554Z,7.28
2023-11-05T16:13:32.492Z,5.78
2023-11-05T16:15:59.454Z,5.78
2023-11-05T16:18:26.300Z,6.95
2023-11-05T16:20:53.238Z,5.15
2023-11-05T16:23:20.021Z,5.28
2023-11-05T16:25:47.477Z,4.97
2023-11-05T16:28:16.192Z,5.22
2023-11-05T16:30:43.742Z,5.68
2023-11-05T16:33:11.859Z,5.72
2023-11-05T16:35:40.469Z,4.85
2023-11-05T16:38:08.277Z,5.07
2023-11-05T16:40:37.664Z,4.15
2023-11-05T16:43:05.263Z,5.28
2023-11-05T16:45:32.003Z,4.18
2023-11-05T16:47:58.784Z,4.57
2023-11-05T16:50:26.392Z,3.88
2023-11-05T16:52:53.212Z,5.47
2023-11-05T16:55:22.022Z,4.80
2023-11-05T16:57:48.765Z,7.28
2023-11-05T17:00:18.189Z,6.60
2023-11-05T17:02:47.480Z,5.72
2023-11-05T17:05:15.711Z,4.78
2023-11-05T17:07:43.182Z,5.07
2023-11-05T17:10:11.814Z,4.93
2023-11-05T17:12:39.613Z,4.60
2023-11-05T17:15:08.569Z,4.05
2023-11-05T17:17:40.135Z,3.53
2023-11-05T17:20:08.980Z,3.42
2023-11-05T17:22:35.911Z,3.53
2023-11-05T17:25:05.316Z,4.40
2023-11-05T17:27:35.595Z,3.22
2023-11-05T17:30:02.449Z,3.50
2023-11-05T17:32:29.452Z,3.38
2023-11-05T17:34:56.479Z,4.35
2023-11-05T17:37:24.086Z,3.17
2023-11-05T17:39:51.495Z,3.45
2023-11-05T17:42:18.333Z,3.67
2023-11-05T17:44:45.179Z,2.50
2023-11-05T17:47:13.092Z,3.38
2023-11-05T17:49:40.823Z,9.48
2023-11-05T17:52:10.015Z,3.22
2023-11-05T17:54:36.782Z,3.35
2023-11-05T17:57:04.794Z,3.28
2023-11-05T17:59:33.103Z,2.92
2023-11-05T18:01:59.967Z,3.38
2023-11-05T18:04:28.784Z,3.40
2023-11-05T18:06:55.764Z,2.30
2023-11-05T18:09:22.550Z,3.13
2023-11-05T18:11:49.948Z,2.90
2023-11-05T18:14:18.911Z,2.75
2023-11-05T18:16:45.989Z,2.83
2023-11-05T18:19:12.967Z,2.70
2023-11-05T18:21:41.351Z,2.72
2023-11-05T18:24:11.666Z,2.70
2023-11-05T18:26:38.680Z,3.28
2023-11-05T18:29:06.969Z,3.00
2023-11-05T18:31:34.166Z,3.42
2023-11-05T18:34:05.413Z,3.13
2023-11-05T18:36:35.042Z,3.40
2023-11-05T18:39:01.770Z,3.15
2023-11-05T18:41:28.531Z,3.47
2023-11-05T18:43:55.316Z,3.17
2023-11-05T18:46:22.111Z,2.90
2023-11-05T18:48:49.242Z,3.03
2023-11-05T18:51:20.611Z,3.17
2023-11-05T18:53:47.358Z,3.10
2023-11-05T18:56:14.577Z,3.88
2023-11-05T18:58:41.485Z,3.42
2023-11-05T19:01:08.689Z,3.75
2023-11-05T19:03:37.438Z,4.10
2023-11-05T19:06:08.487Z,3.83
2023-11-05T19:08:35.178Z,3.80
2023-11-05T19:11:02.040Z,3.78
2023-11-05T19:13:29.672Z,3.92
2023-11-05T19:15:56.419Z,4.20
2023-11-05T19:18:24.644Z,3.97
2023-11-05T19:20:53.346Z,4.65
2023-11-05T19:23:21.080Z,4.15
2023-11-05T19:25:48.180Z,4.60
2023-11-05T19:28:15.249Z,4.25
2023-11-05T19:30:42.166Z,3.88
2023-11-05T19:33:11.755Z,4.05
2023-11-05T19:35:42.590Z,3.90
2023-11-05T19:38:09.362Z,3.28
2023-11-05T19:40:36.189Z,3.42
2023-11-05T19:43:04.528Z,2.95
2023-11-05T19:45:31.404Z,3.45
2023-11-05T19:47:58.511Z,2.95
2023-11-05T19:50:27.433Z,3.55
2023-11-05T19:52:54.320Z,2.92
2023-11-05T19:55:22.415Z,3.30
2023-11-05T19:57:49.536Z,2.92
2023-11-05T20:00:30.957Z,2.63
2023-11-05T20:02:58.144Z,2.42
2023-11-05T20:05:27.590Z,2.65
2023-11-05T20:07:54.824Z,3.15
2023-11-05T20:10:21.841Z,2.30
2023-11-05T20:12:51.316Z,2.65
2023-11-05T20:15:19.904Z,2.47
2023-11-05T20:17:46.814Z,2.55
2023-11-05T20:20:13.628Z,2.22
2023-11-05T20:22:42.788Z,2.47
2023-11-05T20:25:10.245Z,2.50
2023-11-05T20:27:37.932Z,2.35
2023-11-05T20:30:05.081Z,1.92
2023-11-05T20:32:32.677Z,2.15
2023-11-05T20:34:59.531Z,1.88
2023-11-05T20:37:26.468Z,2.13
2023-11-05T20:39:53.314Z,1.85
2023-11-05T20:42:20.961Z,1.98
2023-11-05T20:44:47.719Z,2.03
2023-11-05T20:47:14.601Z,1.95
2023-11-05T20:49:41.532Z,1.73
2023-11-05T20:52:08.404Z,2.05
2023-11-05T20:54:37.988Z,2.10
2023-11-05T20:57:08.863Z,1.85
2023-11-05T20:59:35.593Z,1.92
2023-11-05T21:02:03.827Z,2.08
2023-11-05T21:04:31.130Z,1.95
2023-11-05T21:06:58.224Z,2.92
2023-11-05T21:09:26.113Z,2.10
2023-11-05T21:11:54.269Z,2.70
2023-11-05T21:14:21.088Z,1.90
2023-11-05T21:16:49.073Z,2.17
2023-11-05T21:19:15.897Z,1.92
2023-11-05T21:21:43.350Z,1.70
2023-11-05T21:24:11.384Z,1.80
2023-11-05T21:26:38.156Z,2.28
2023-11-05T21:29:04.962Z,1.90
2023-11-05T21:31:31.976Z,1.83
2023-11-05T21:33:59.279Z,1.88
2023-11-05T21:36:26.230Z,1.77
2023-11-05T21:38:53.003Z,1.50
2023-11-05T21:41:20.686Z,1.33
2023-11-05T21:43:48.792Z,1.13
2023-11-05T21:46:15.998Z,1.27
2023-11-05T21:48:43.326Z,1.52
2023-11-05T21:51:10.220Z,1.40
2023-11-05T21:53:38.487Z,1.63
2023-11-05T21:56:05.518Z,1.70
2023-11-05T21:58:32.346Z,1.80
2023-11-05T22:00:59.108Z,1.73
2023-11-05T22:03:26.217Z,1.60
2023-11-05T22:05:53.103Z,1.67
2023-11-05T22:08:19.871Z,1.42
2023-11-05T22:10:48.224Z,1.88
2023-11-05T22:13:15.111Z,1.35
2023-11-05T22:15:41.992Z,1.50
2023-11-05T22:18:09.017Z,1.38
2023-11-05T22:20:37.560Z,1.45
2023-11-05T22:23:04.555Z,1.00
2023-11-05T22:25:32.731Z,1.45
2023-11-05T22:28:00.808Z,1.10
2023-11-05T22:30:27.809Z,1.30
2023-11-05T22:32:54.740Z,1.27
2023-11-05T22:35:21.889Z,1.50
2023-11-05T22:37:48.865Z,1.40
2023-11-05T22:40:15.888Z,1.40
2023-11-05T22:42:42.859Z,1.50
2023-11-05T22:45:12.896Z,1.40
2023-11-05T22:47:44.200Z,1.55
2023-11-05T22:50:11.641Z,1.15
2023-11-05T22:52:38.520Z,1.20
2023-11-05T22:55:06.102Z,1.77
2023-11-05T22:57:33.002Z,1.33
2023-11-05T23:00:00.027Z,1.45
2023-11-05T23:02:28.636Z,1.10
2023-11-05T23:04:55.887Z,1.10
2023-11-05T23:07:22.881Z,1.45
2023-11-05T23:09:49.802Z,1.50
2023-11-05T23:12:16.647Z,1.33
2023-11-05T23:14:43.512Z,1.52
2023-11-05T23:17:11.747Z,1.50
2023-11-05T23:19:39.663Z,1.10
2023-11-05T23:22:06.635Z,1.35
2023-11-05T23:24:34.552Z,1.27
2023-11-05T23:27:02.328Z,1.35
2023-11-05T23:29:29.556Z,1.42
2023-11-05T23:31:56.771Z,1.70
2023-11-05T23:34:23.883Z,1.55
2023-11-05T23:36:50.964Z,1.40
2023-11-05T23:39:17.819Z,1.30
2023-11-05T23:41:45.907Z,1.45
2023-11-05T23:44:12.829Z,1.70
2023-11-05T23:46:41.553Z,1.70
2023-11-05T23:49:08.428Z,1.55
2023-11-05T23:51:35.334Z,1.70
2023-11-05T23:54:02.356Z,1.50
2023-11-05T23:56:30.033Z,1.33
2023-11-05T23:58:56.838Z,1.17
